<?xml version="1.0" encoding="UTF-8" standalone="no" ?>
<gpx xmlns="http://www.topografix.com/GPX/1/1" xmlns:xsi="http://www.w3.org/2001/XMLSchema-instance" xsi:schemaLocation="http://www.topografix.com/GPX/1/1 http://www.topografix.com/GPX/1/1/gpx.xsd" version="1.1" creator="VisuGPX - https://www.visugpx.com">
  <metadata>
    <name>LaVerrie_Autour_20km</name>
    <desc><![CDATA[gnerando idor:6804223]]></desc>
  </metadata>
  <trk>
    <name><![CDATA[LaVerrie_Autour_20.2km-6804223]]></name>
    <extensions>
      <line xmlns="http://www.topografix.com/GPX/gpx_style/0/2">
        <color>0000FF</color>
        <width>4</width>
      </line>
    </extensions>
    <trkseg>
      <trkpt lat="46.96086" lon="-0.99393">
        <ele>155</ele>
        <time>2023-11-04T13:08:25Z</time>
      </trkpt>
      <trkpt lat="46.95943" lon="-0.99653">
        <ele>162</ele>
        <time>2023-11-04T13:13:29Z</time>
      </trkpt>
      <trkpt lat="46.95823" lon="-0.99765">
        <ele>165</ele>
        <time>2023-11-04T13:16:39Z</time>
      </trkpt>
      <trkpt lat="46.95738" lon="-0.99859">
        <ele>171</ele>
        <time>2023-11-04T13:19:01Z</time>
      </trkpt>
      <trkpt lat="46.95659" lon="-0.99851">
        <ele>177</ele>
        <time>2023-11-04T13:20:47Z</time>
      </trkpt>
      <trkpt lat="46.95515" lon="-0.99988">
        <ele>177</ele>
        <time>2023-11-04T13:24:36Z</time>
      </trkpt>
      <trkpt lat="46.95416" lon="-1.00233">
        <ele>182</ele>
        <time>2023-11-04T13:28:55Z</time>
      </trkpt>
      <trkpt lat="46.95439" lon="-1.00465">
        <ele>185</ele>
        <time>2023-11-04T13:32:29Z</time>
      </trkpt>
      <trkpt lat="46.95351" lon="-1.00743">
        <ele>191</ele>
        <time>2023-11-04T13:37:08Z</time>
      </trkpt>
      <trkpt lat="46.95509" lon="-1.00979">
        <ele>190</ele>
        <time>2023-11-04T13:42:09Z</time>
      </trkpt>
      <trkpt lat="46.95372" lon="-1.01151">
        <ele>194</ele>
        <time>2023-11-04T13:46:10Z</time>
      </trkpt>
      <trkpt lat="46.95316" lon="-1.01293">
        <ele>198</ele>
        <time>2023-11-04T13:48:39Z</time>
      </trkpt>
      <trkpt lat="46.9536" lon="-1.01404">
        <ele>195</ele>
        <time>2023-11-04T13:50:36Z</time>
      </trkpt>
      <trkpt lat="46.95527" lon="-1.01516">
        <ele>190</ele>
        <time>2023-11-04T13:54:41Z</time>
      </trkpt>
      <trkpt lat="46.95641" lon="-1.01829">
        <ele>185</ele>
        <time>2023-11-04T14:00:04Z</time>
      </trkpt>
      <trkpt lat="46.9565" lon="-1.02181">
        <ele>183</ele>
        <time>2023-11-04T14:05:25Z</time>
      </trkpt>
      <trkpt lat="46.95788" lon="-1.02177">
        <ele>186</ele>
        <time>2023-11-04T14:08:29Z</time>
      </trkpt>
      <trkpt lat="46.95881" lon="-1.02327">
        <ele>181</ele>
        <time>2023-11-04T14:11:34Z</time>
      </trkpt>
      <trkpt lat="46.9611" lon="-1.02254">
        <ele>182</ele>
        <time>2023-11-04T14:16:47Z</time>
      </trkpt>
      <trkpt lat="46.96127" lon="-1.02095">
        <ele>186</ele>
        <time>2023-11-04T14:19:13Z</time>
      </trkpt>
      <trkpt lat="46.96124" lon="-1.01967">
        <ele>187</ele>
        <time>2023-11-04T14:21:10Z</time>
      </trkpt>
      <trkpt lat="46.96312" lon="-1.01937">
        <ele>183</ele>
        <time>2023-11-04T14:25:22Z</time>
      </trkpt>
      <trkpt lat="46.96412" lon="-1.01782">
        <ele>173</ele>
        <time>2023-11-04T14:28:37Z</time>
      </trkpt>
      <trkpt lat="46.96347" lon="-1.01567">
        <ele>167</ele>
        <time>2023-11-04T14:32:11Z</time>
      </trkpt>
      <trkpt lat="46.96365" lon="-1.01456">
        <ele>163</ele>
        <time>2023-11-04T14:33:55Z</time>
      </trkpt>
      <trkpt lat="46.96722" lon="-1.01052">
        <ele>139</ele>
        <time>2023-11-04T14:43:57Z</time>
      </trkpt>
      <trkpt lat="46.96725" lon="-1.00928">
        <ele>140</ele>
        <time>2023-11-04T14:45:50Z</time>
      </trkpt>
      <trkpt lat="46.96824" lon="-1.00808">
        <ele>141</ele>
        <time>2023-11-04T14:48:41Z</time>
      </trkpt>
      <trkpt lat="46.96827" lon="-1.00576">
        <ele>148</ele>
        <time>2023-11-04T14:52:12Z</time>
      </trkpt>
      <trkpt lat="46.96918" lon="-1.00628">
        <ele>145</ele>
        <time>2023-11-04T14:54:23Z</time>
      </trkpt>
      <trkpt lat="46.97038" lon="-1.00516">
        <ele>138</ele>
        <time>2023-11-04T14:57:32Z</time>
      </trkpt>
      <trkpt lat="46.9705" lon="-1.00301">
        <ele>142</ele>
        <time>2023-11-04T15:00:49Z</time>
      </trkpt>
      <trkpt lat="46.97229" lon="-0.99962">
        <ele>142</ele>
        <time>2023-11-04T15:07:19Z</time>
      </trkpt>
      <trkpt lat="46.97439" lon="-0.99872">
        <ele>132</ele>
        <time>2023-11-04T15:12:11Z</time>
      </trkpt>
      <trkpt lat="46.97612" lon="-0.99894">
        <ele>129</ele>
        <time>2023-11-04T15:16:03Z</time>
      </trkpt>
      <trkpt lat="46.97671" lon="-1.00078">
        <ele>126</ele>
        <time>2023-11-04T15:19:08Z</time>
      </trkpt>
      <trkpt lat="46.97785" lon="-1.00203">
        <ele>120</ele>
        <time>2023-11-04T15:22:18Z</time>
      </trkpt>
      <trkpt lat="46.9804" lon="-1.00284">
        <ele>96</ele>
        <time>2023-11-04T15:28:06Z</time>
      </trkpt>
      <trkpt lat="46.98215" lon="-1.00216">
        <ele>92</ele>
        <time>2023-11-04T15:32:08Z</time>
      </trkpt>
      <trkpt lat="46.98347" lon="-1.0019">
        <ele>96</ele>
        <time>2023-11-04T15:35:06Z</time>
      </trkpt>
      <trkpt lat="46.98461" lon="-1.00018">
        <ele>91</ele>
        <time>2023-11-04T15:38:44Z</time>
      </trkpt>
      <trkpt lat="46.98616" lon="-1.00005">
        <ele>93</ele>
        <time>2023-11-04T15:42:11Z</time>
      </trkpt>
      <trkpt lat="46.98695" lon="-1.00228">
        <ele>114</ele>
        <time>2023-11-04T15:46:00Z</time>
      </trkpt>
      <trkpt lat="46.98742" lon="-1.00426">
        <ele>122</ele>
        <time>2023-11-04T15:49:11Z</time>
      </trkpt>
      <trkpt lat="46.98742" lon="-1.00533">
        <ele>122</ele>
        <time>2023-11-04T15:50:48Z</time>
      </trkpt>
      <trkpt lat="46.98991" lon="-1.0064">
        <ele>108</ele>
        <time>2023-11-04T15:56:34Z</time>
      </trkpt>
      <trkpt lat="46.99088" lon="-1.00786">
        <ele>108</ele>
        <time>2023-11-04T15:59:40Z</time>
      </trkpt>
      <trkpt lat="46.99363" lon="-1.00671">
        <ele>103</ele>
        <time>2023-11-04T16:06:01Z</time>
      </trkpt>
      <trkpt lat="46.99436" lon="-1.00422">
        <ele>101</ele>
        <time>2023-11-04T16:10:08Z</time>
      </trkpt>
      <trkpt lat="46.99521" lon="-1.00409">
        <ele>101</ele>
        <time>2023-11-04T16:12:02Z</time>
      </trkpt>
      <trkpt lat="46.99749" lon="-1.00602">
        <ele>89</ele>
        <time>2023-11-04T16:17:54Z</time>
      </trkpt>
      <trkpt lat="46.99787" lon="-1.00216">
        <ele>78</ele>
        <time>2023-11-04T16:23:48Z</time>
      </trkpt>
      <trkpt lat="46.99814" lon="-0.99988">
        <ele>84</ele>
        <time>2023-11-04T16:27:19Z</time>
      </trkpt>
      <trkpt lat="46.99843" lon="-0.99726">
        <ele>97</ele>
        <time>2023-11-04T16:31:21Z</time>
      </trkpt>
      <trkpt lat="46.99849" lon="-0.9952">
        <ele>99</ele>
        <time>2023-11-04T16:34:28Z</time>
      </trkpt>
      <trkpt lat="46.99796" lon="-0.99302">
        <ele>97</ele>
        <time>2023-11-04T16:37:59Z</time>
      </trkpt>
      <trkpt lat="46.99691" lon="-0.99267">
        <ele>94</ele>
        <time>2023-11-04T16:40:23Z</time>
      </trkpt>
      <trkpt lat="46.99527" lon="-0.99241">
        <ele>100</ele>
        <time>2023-11-04T16:44:03Z</time>
      </trkpt>
      <trkpt lat="46.99152" lon="-0.98606">
        <ele>101</ele>
        <time>2023-11-04T16:56:47Z</time>
      </trkpt>
      <trkpt lat="46.99091" lon="-0.984">
        <ele>100</ele>
        <time>2023-11-04T17:00:12Z</time>
      </trkpt>
      <trkpt lat="46.99313" lon="-0.98203">
        <ele>98</ele>
        <time>2023-11-04T17:05:58Z</time>
      </trkpt>
      <trkpt lat="46.99448" lon="-0.97881">
        <ele>71</ele>
        <time>2023-11-04T17:11:42Z</time>
      </trkpt>
      <trkpt lat="46.99366" lon="-0.97791">
        <ele>76</ele>
        <time>2023-11-04T17:13:59Z</time>
      </trkpt>
      <trkpt lat="46.99345" lon="-0.97606">
        <ele>73</ele>
        <time>2023-11-04T17:16:49Z</time>
      </trkpt>
      <trkpt lat="46.99407" lon="-0.97409">
        <ele>71</ele>
        <time>2023-11-04T17:20:07Z</time>
      </trkpt>
      <trkpt lat="46.9946" lon="-0.97203">
        <ele>72</ele>
        <time>2023-11-04T17:23:27Z</time>
      </trkpt>
      <trkpt lat="46.99451" lon="-0.96915">
        <ele>77</ele>
        <time>2023-11-04T17:27:50Z</time>
      </trkpt>
      <trkpt lat="46.99533" lon="-0.96757">
        <ele>70</ele>
        <time>2023-11-04T17:30:50Z</time>
      </trkpt>
      <trkpt lat="46.99521" lon="-0.96645">
        <ele>77</ele>
        <time>2023-11-04T17:32:34Z</time>
      </trkpt>
      <trkpt lat="46.99401" lon="-0.96491">
        <ele>85</ele>
        <time>2023-11-04T17:36:06Z</time>
      </trkpt>
      <trkpt lat="46.99345" lon="-0.96306">
        <ele>83</ele>
        <time>2023-11-04T17:39:11Z</time>
      </trkpt>
      <trkpt lat="46.99114" lon="-0.95898">
        <ele>82</ele>
        <time>2023-11-04T17:47:13Z</time>
      </trkpt>
      <trkpt lat="46.99067" lon="-0.95873">
        <ele>82</ele>
        <time>2023-11-04T17:48:20Z</time>
      </trkpt>
      <trkpt lat="46.98991" lon="-0.9586">
        <ele>77</ele>
        <time>2023-11-04T17:50:02Z</time>
      </trkpt>
      <trkpt lat="46.98704" lon="-0.9604">
        <ele>80</ele>
        <time>2023-11-04T17:56:59Z</time>
      </trkpt>
      <trkpt lat="46.98842" lon="-0.95928">
        <ele>75</ele>
        <time>2023-11-04T18:00:29Z</time>
      </trkpt>
      <trkpt lat="46.98959" lon="-0.95881">
        <ele>79</ele>
        <time>2023-11-04T18:03:11Z</time>
      </trkpt>
      <trkpt lat="46.99029" lon="-0.9598">
        <ele>95</ele>
        <time>2023-11-04T18:05:21Z</time>
      </trkpt>
      <trkpt lat="46.98909" lon="-0.96319">
        <ele>112</ele>
        <time>2023-11-04T18:11:09Z</time>
      </trkpt>
      <trkpt lat="46.98763" lon="-0.96396">
        <ele>116</ele>
        <time>2023-11-04T18:14:36Z</time>
      </trkpt>
      <trkpt lat="46.98704" lon="-0.96362">
        <ele>115</ele>
        <time>2023-11-04T18:16:00Z</time>
      </trkpt>
      <trkpt lat="46.98587" lon="-0.96456">
        <ele>120</ele>
        <time>2023-11-04T18:18:58Z</time>
      </trkpt>
      <trkpt lat="46.98602" lon="-0.96709">
        <ele>123</ele>
        <time>2023-11-04T18:22:49Z</time>
      </trkpt>
      <trkpt lat="46.98546" lon="-0.96945">
        <ele>131</ele>
        <time>2023-11-04T18:26:37Z</time>
      </trkpt>
      <trkpt lat="46.98417" lon="-0.97134">
        <ele>138</ele>
        <time>2023-11-04T18:30:40Z</time>
      </trkpt>
      <trkpt lat="46.98496" lon="-0.97263">
        <ele>140</ele>
        <time>2023-11-04T18:33:18Z</time>
      </trkpt>
      <trkpt lat="46.98403" lon="-0.97602">
        <ele>125</ele>
        <time>2023-11-04T18:38:51Z</time>
      </trkpt>
      <trkpt lat="46.98397" lon="-0.97727">
        <ele>122</ele>
        <time>2023-11-04T18:40:45Z</time>
      </trkpt>
      <trkpt lat="46.98356" lon="-0.97817">
        <ele>122</ele>
        <time>2023-11-04T18:42:23Z</time>
      </trkpt>
      <trkpt lat="46.98403" lon="-0.97894">
        <ele>121</ele>
        <time>2023-11-04T18:43:57Z</time>
      </trkpt>
      <trkpt lat="46.984" lon="-0.98267">
        <ele>92</ele>
        <time>2023-11-04T18:49:37Z</time>
      </trkpt>
      <trkpt lat="46.98356" lon="-0.98435">
        <ele>93</ele>
        <time>2023-11-04T18:52:21Z</time>
      </trkpt>
      <trkpt lat="46.98209" lon="-0.98482">
        <ele>105</ele>
        <time>2023-11-04T18:55:42Z</time>
      </trkpt>
      <trkpt lat="46.97946" lon="-0.98572">
        <ele>111</ele>
        <time>2023-11-04T19:01:42Z</time>
      </trkpt>
      <trkpt lat="46.97785" lon="-0.98623">
        <ele>118</ele>
        <time>2023-11-04T19:05:22Z</time>
      </trkpt>
      <trkpt lat="46.97624" lon="-0.98576">
        <ele>126</ele>
        <time>2023-11-04T19:09:01Z</time>
      </trkpt>
      <trkpt lat="46.97495" lon="-0.98765">
        <ele>131</ele>
        <time>2023-11-04T19:13:04Z</time>
      </trkpt>
      <trkpt lat="46.97349" lon="-0.98851">
        <ele>132</ele>
        <time>2023-11-04T19:16:34Z</time>
      </trkpt>
      <trkpt lat="46.97264" lon="-0.99027">
        <ele>133</ele>
        <time>2023-11-04T19:19:51Z</time>
      </trkpt>
      <trkpt lat="46.97082" lon="-0.98928">
        <ele>140</ele>
        <time>2023-11-04T19:24:10Z</time>
      </trkpt>
      <trkpt lat="46.96977" lon="-0.98941">
        <ele>145</ele>
        <time>2023-11-04T19:26:30Z</time>
      </trkpt>
      <trkpt lat="46.96915" lon="-0.98885">
        <ele>142</ele>
        <time>2023-11-04T19:28:07Z</time>
      </trkpt>
      <trkpt lat="46.96848" lon="-0.98761">
        <ele>131</ele>
        <time>2023-11-04T19:30:31Z</time>
      </trkpt>
      <trkpt lat="46.96754" lon="-0.98748">
        <ele>130</ele>
        <time>2023-11-04T19:32:37Z</time>
      </trkpt>
      <trkpt lat="46.96625" lon="-0.98739">
        <ele>128</ele>
        <time>2023-11-04T19:35:30Z</time>
      </trkpt>
      <trkpt lat="46.96485" lon="-0.98821">
        <ele>133</ele>
        <time>2023-11-04T19:38:51Z</time>
      </trkpt>
      <trkpt lat="46.96347" lon="-0.98907">
        <ele>140</ele>
        <time>2023-11-04T19:42:11Z</time>
      </trkpt>
      <trkpt lat="46.9625" lon="-0.99057">
        <ele>145</ele>
        <time>2023-11-04T19:45:19Z</time>
      </trkpt>
      <trkpt lat="46.96081" lon="-0.99383">
        <ele>155</ele>
        <time>2023-11-04T19:51:32Z</time>
      </trkpt>
    </trkseg>
  </trk>
</gpx>